createdAt,value
2019-02-19T00:02:39.018Z,4.14
2019-02-19T00:05:42.491Z,4.20
2019-02-19T00:08:45.604Z,4.23
2019-02-19T00:11:48.805Z,4.32
2019-02-19T00:14:52.017Z,4.34
2019-02-19T00:17:55.191Z,4.30
2019-02-19T00:20:58.391Z,4.08
2019-02-19T00:24:01.479Z,3.87
2019-02-19T00:27:04.671Z,3.64
2019-02-19T00:30:08.149Z,3.56
2019-02-19T00:33:11.276Z,3.61
2019-02-19T00:36:14.478Z,3.67
2019-02-19T00:39:17.659Z,3.69
2019-02-19T00:42:21.067Z,3.62
2019-02-19T00:45:24.243Z,3.66
2019-02-19T00:48:27.490Z,3.57
2019-02-19T00:51:30.634Z,3.53
2019-02-19T00:54:33.838Z,3.58
2019-02-19T00:57:37.023Z,3.66
2019-02-19T01:00:40.226Z,3.75
2019-02-19T01:03:43.435Z,3.84
2019-02-19T01:06:46.632Z,3.82
2019-02-19T01:09:49.898Z,3.72
2019-02-19T01:12:53.379Z,3.68
2019-02-19T01:15:56.511Z,3.64
2019-02-19T01:18:59.700Z,3.69
2019-02-19T01:22:02.892Z,3.85
2019-02-19T01:25:07.331Z,3.94
2019-02-19T01:28:10.627Z,4.01
2019-02-19T01:31:13.803Z,4.06
2019-02-19T01:34:17.100Z,4.14
2019-02-19T01:37:20.287Z,4.25
2019-02-19T01:40:23.500Z,4.34
2019-02-19T01:43:26.812Z,4.44
2019-02-19T01:46:30.145Z,4.46
2019-02-19T01:49:33.385Z,4.50
2019-02-19T01:52:36.634Z,4.41
2019-02-19T01:55:39.768Z,4.18
2019-02-19T01:58:42.966Z,4.09
2019-02-19T02:01:46.179Z,4.04
2019-02-19T02:04:49.251Z,3.94
2019-02-19T02:07:52.443Z,3.94
2019-02-19T02:10:55.647Z,3.91
2019-02-19T02:13:58.828Z,3.96
2019-02-19T02:17:02.047Z,4.01
2019-02-19T02:20:05.775Z,3.75
2019-02-19T02:23:08.952Z,3.69
2019-02-19T02:26:12.124Z,3.61
2019-02-19T02:29:15.315Z,3.53
2019-02-19T02:32:18.524Z,3.51
2019-02-19T02:35:21.729Z,3.59
2019-02-19T02:38:24.905Z,3.58
2019-02-19T02:41:28.114Z,3.57
2019-02-19T02:44:31.275Z,3.55
2019-02-19T02:47:34.482Z,3.47
2019-02-19T02:50:37.573Z,3.55
2019-02-19T02:53:40.774Z,3.53
2019-02-19T02:56:43.867Z,3.52
2019-02-19T02:59:47.055Z,3.60
2019-02-19T03:02:50.249Z,3.57
2019-02-19T03:06:05.975Z,3.63
2019-02-19T03:09:09.123Z,3.70
2019-02-19T03:12:12.424Z,3.54
2019-02-19T03:15:15.607Z,3.41
2019-02-19T03:18:18.708Z,3.43
2019-02-19T03:21:21.806Z,3.47
2019-02-19T03:24:25.116Z,3.32
2019-02-19T03:27:28.317Z,3.32
2019-02-19T03:30:31.481Z,3.41
2019-02-19T03:33:34.669Z,3.38
2019-02-19T03:36:37.868Z,3.48
2019-02-19T03:39:41.062Z,3.58
2019-02-19T03:42:44.163Z,3.57
2019-02-19T03:45:47.369Z,3.42
2019-02-19T03:48:50.552Z,3.37
2019-02-19T03:51:53.748Z,3.33
2019-02-19T03:54:56.923Z,3.39
2019-02-19T03:58:00.032Z,3.45
2019-02-19T04:01:03.133Z,3.46
2019-02-19T04:04:06.303Z,3.54
2019-02-19T04:07:09.523Z,3.64
2019-02-19T04:10:12.714Z,3.65
2019-02-19T04:13:15.917Z,3.52
2019-02-19T04:16:21.354Z,3.44
2019-02-19T04:19:22.383Z,3.46
2019-02-19T04:22:25.480Z,3.52
2019-02-19T04:25:28.693Z,3.56
2019-02-19T04:28:31.864Z,3.45
2019-02-19T04:31:34.992Z,3.17
2019-02-19T04:34:38.088Z,3.04
2019-02-19T04:37:41.252Z,2.96
2019-02-19T04:40:44.441Z,2.97
2019-02-19T04:43:47.659Z,3.12
2019-02-19T04:46:50.848Z,3.19
2019-02-19T04:49:54.015Z,3.19
2019-02-19T04:52:57.295Z,3.17
2019-02-19T04:56:00.406Z,3.18
2019-02-19T04:59:03.609Z,3.23
2019-02-19T05:02:06.801Z,3.26
2019-02-19T05:05:09.912Z,3.15
2019-02-19T05:08:13.075Z,3.05
2019-02-19T05:11:16.268Z,2.94
2019-02-19T05:14:19.462Z,2.93
2019-02-19T05:17:22.584Z,2.90
2019-02-19T05:20:25.772Z,2.79
2019-02-19T05:23:28.951Z,2.92
2019-02-19T05:26:32.143Z,2.99
2019-02-19T05:29:35.362Z,3.14
2019-02-19T05:32:38.551Z,3.17
2019-02-19T05:35:41.720Z,3.16
2019-02-19T05:38:44.931Z,3.16
2019-02-19T05:41:48.135Z,3.11
2019-02-19T05:44:51.346Z,2.99
2019-02-19T05:47:54.530Z,2.99
2019-02-19T05:50:57.752Z,3.02
2019-02-19T05:54:00.914Z,3.04
2019-02-19T05:57:04.083Z,3.12
2019-02-19T06:00:07.790Z,3.23
2019-02-19T06:03:11.004Z,3.28
2019-02-19T06:06:14.287Z,3.38
2019-02-19T06:09:17.503Z,3.45
2019-02-19T06:12:20.666Z,3.51
2019-02-19T06:15:23.889Z,3.52
2019-02-19T06:18:27.158Z,3.62
2019-02-19T06:21:30.274Z,3.72
2019-02-19T06:24:33.362Z,3.79
2019-02-19T06:27:36.542Z,3.84
2019-02-19T06:30:39.648Z,3.91
2019-02-19T06:33:42.861Z,3.98
2019-02-19T06:36:46.134Z,3.97
2019-02-19T06:39:49.323Z,3.99
2019-02-19T06:42:52.515Z,3.98
2019-02-19T06:45:55.697Z,3.98
2019-02-19T06:48:58.903Z,4.00
2019-02-19T06:52:02.104Z,4.01
2019-02-19T06:55:05.814Z,4.07
2019-02-19T06:58:08.995Z,4.07
2019-02-19T07:01:12.116Z,4.05
2019-02-19T07:04:19.501Z,4.10
2019-02-19T07:07:22.681Z,4.19
2019-02-19T07:10:25.874Z,4.25
2019-02-19T07:13:29.119Z,4.30
2019-02-19T07:16:32.276Z,4.31
2019-02-19T07:19:35.561Z,4.36
2019-02-19T07:22:38.759Z,4.46
2019-02-19T07:25:41.955Z,4.52
2019-02-19T07:28:45.168Z,4.60
2019-02-19T07:31:48.363Z,4.68
2019-02-19T07:34:51.634Z,4.78
2019-02-19T07:37:54.784Z,4.89
2019-02-19T07:40:58.019Z,4.94
2019-02-19T07:44:01.210Z,4.97
2019-02-19T07:47:04.319Z,5.00
2019-02-19T07:50:08.014Z,5.03
2019-02-19T07:53:11.127Z,5.08
2019-02-19T07:56:14.407Z,5.14
2019-02-19T07:59:17.725Z,5.18
2019-02-19T08:02:21.011Z,5.24
2019-02-19T08:05:24.302Z,5.28
2019-02-19T08:08:27.519Z,5.35
2019-02-19T08:11:30.683Z,5.43
2019-02-19T08:14:33.877Z,5.50
2019-02-19T08:17:37.183Z,5.52
2019-02-19T08:20:40.387Z,5.54
2019-02-19T08:23:43.668Z,5.58
2019-02-19T08:26:46.848Z,5.64
2019-02-19T08:29:49.954Z,5.69
2019-02-19T08:32:53.322Z,5.77
2019-02-19T08:35:56.448Z,5.86
2019-02-19T08:38:59.641Z,5.93
2019-02-19T08:42:02.831Z,5.99
2019-02-19T08:45:06.144Z,6.02
2019-02-19T08:48:09.427Z,6.03
2019-02-19T08:51:12.640Z,6.11
2019-02-19T08:54:15.930Z,6.11
2019-02-19T08:57:19.195Z,6.19
2019-02-19T09:00:22.213Z,6.25
2019-02-19T09:03:25.494Z,6.25
2019-02-19T09:06:28.699Z,6.26
2019-02-19T09:09:31.896Z,6.28
2019-02-19T09:12:35.083Z,6.36
2019-02-19T09:15:38.300Z,6.48
2019-02-19T09:18:41.485Z,6.61
2019-02-19T09:21:44.668Z,6.69
2019-02-19T09:24:47.873Z,6.73
2019-02-19T09:27:51.067Z,6.77
2019-02-19T09:30:54.256Z,6.78
2019-02-19T09:33:57.447Z,6.85
2019-02-19T09:37:00.539Z,6.94
2019-02-19T09:40:04.070Z,6.95
2019-02-19T09:43:07.238Z,6.97
2019-02-19T09:46:10.427Z,7.09
2019-02-19T09:49:13.611Z,7.25
2019-02-19T09:52:16.706Z,7.33
2019-02-19T09:55:19.812Z,7.44
2019-02-19T09:58:22.908Z,7.55
2019-02-19T10:01:28.095Z,7.59
2019-02-19T10:04:29.282Z,7.61
2019-02-19T10:07:32.498Z,7.62
2019-02-19T10:10:35.691Z,7.65
2019-02-19T10:13:38.879Z,7.73
2019-02-19T10:16:42.260Z,7.68
2019-02-19T10:19:45.276Z,7.73
2019-02-19T10:22:48.562Z,7.68
2019-02-19T10:25:51.863Z,7.71
2019-02-19T10:28:55.033Z,7.71
2019-02-19T10:31:58.131Z,7.70
2019-02-19T10:35:01.211Z,7.72
2019-02-19T10:38:04.323Z,7.77
2019-02-19T10:41:07.516Z,7.80
2019-02-19T10:44:10.723Z,7.84
2019-02-19T10:47:13.892Z,7.85
2019-02-19T10:50:17.006Z,7.89
2019-02-19T10:53:20.196Z,7.88
2019-02-19T10:56:23.543Z,7.92
2019-02-19T10:59:26.696Z,7.99
2019-02-19T11:02:29.985Z,8.11
2019-02-19T11:05:33.084Z,8.18
2019-02-19T11:08:36.167Z,8.25
2019-02-19T11:11:39.448Z,8.40
2019-02-19T11:14:42.597Z,8.48
2019-02-19T11:17:45.851Z,8.64
2019-02-19T11:20:49.047Z,8.75
2019-02-19T11:23:52.235Z,8.79
2019-02-19T11:26:55.531Z,8.88
2019-02-19T11:29:58.727Z,8.85
2019-02-19T11:33:01.957Z,9.02
2019-02-19T11:36:05.142Z,9.15
2019-02-19T11:39:08.375Z,9.22
2019-02-19T11:42:11.510Z,9.38
2019-02-19T11:45:14.729Z,9.43
2019-02-19T11:48:19.188Z,9.56
2019-02-19T11:51:21.295Z,9.54
2019-02-19T11:54:24.495Z,9.60
2019-02-19T11:57:27.659Z,9.57
2019-02-19T12:00:34.531Z,9.60
2019-02-19T12:03:37.776Z,9.73
2019-02-19T12:06:40.978Z,9.76
2019-02-19T12:09:44.178Z,9.79
2019-02-19T12:12:47.351Z,9.74
2019-02-19T12:15:50.543Z,9.71
2019-02-19T12:18:53.613Z,9.74
2019-02-19T12:21:56.730Z,9.65
2019-02-19T12:24:59.916Z,9.58
2019-02-19T12:28:03.013Z,9.52
2019-02-19T12:31:06.210Z,9.52
2019-02-19T12:34:09.400Z,9.63
2019-02-19T12:37:12.583Z,9.73
2019-02-19T12:40:15.787Z,9.69
2019-02-19T12:43:18.998Z,9.76
2019-02-19T12:46:22.178Z,9.89
2019-02-19T12:49:25.267Z,9.93
2019-02-19T12:52:28.496Z,10.01
2019-02-19T12:55:31.662Z,9.94
2019-02-19T12:58:34.843Z,9.98
2019-02-19T13:01:37.939Z,10.19
2019-02-19T13:04:41.068Z,10.24
2019-02-19T13:07:44.243Z,10.23
2019-02-19T13:10:47.543Z,10.16
2019-02-19T13:13:50.719Z,10.27
2019-02-19T13:16:53.870Z,10.50
2019-02-19T13:19:57.008Z,10.42
2019-02-19T13:23:00.223Z,10.46
2019-02-19T13:26:03.291Z,10.54
2019-02-19T13:29:06.587Z,10.64
2019-02-19T13:32:10.392Z,10.58
2019-02-19T13:35:13.705Z,10.50
2019-02-19T13:38:16.915Z,10.52
2019-02-19T13:41:20.088Z,10.53
2019-02-19T13:44:23.287Z,10.69
2019-02-19T13:47:26.478Z,11.02
2019-02-19T13:50:29.798Z,11.42
2019-02-19T13:53:37.838Z,11.50
2019-02-19T13:56:40.986Z,11.53
2019-02-19T13:59:44.221Z,11.63
2019-02-19T14:02:47.379Z,11.49
2019-02-19T14:05:50.553Z,11.84
2019-02-19T14:08:53.641Z,12.07
2019-02-19T14:11:56.764Z,11.79
2019-02-19T14:15:04.723Z,11.56
2019-02-19T14:18:08.735Z,11.54
2019-02-19T14:21:24.168Z,11.49
2019-02-19T14:24:46.730Z,12.00
2019-02-19T14:27:55.191Z,12.55
2019-02-19T14:31:07.258Z,12.60
2019-02-19T14:38:02.195Z,12.64
2019-02-19T14:42:11.763Z,12.67
2019-02-19T14:45:20.931Z,12.64
2019-02-19T14:48:31.239Z,12.74
2019-02-19T14:51:39.855Z,12.68
2019-02-19T14:54:47.215Z,12.49
2019-02-19T14:57:55.412Z,12.14
2019-02-19T15:01:03.934Z,12.07
2019-02-19T15:04:19.320Z,11.99
2019-02-19T15:11:10.163Z,11.64
2019-02-19T15:14:29.739Z,11.56
2019-02-19T15:17:45.118Z,11.38
2019-02-19T15:21:52.459Z,11.43
2019-02-19T15:25:59.614Z,11.37
2019-02-19T15:29:07.760Z,11.31
2019-02-19T15:32:15.927Z,11.22
2019-02-19T15:35:31.170Z,11.15
2019-02-19T15:38:40.338Z,11.13
2019-02-19T15:41:49.651Z,11.08
2019-02-19T15:44:57.032Z,10.99
2019-02-19T15:48:04.334Z,10.90
2019-02-19T15:51:15.522Z,10.89
2019-02-19T16:00:05.030Z,10.83
2019-02-19T16:03:12.334Z,10.77
2019-02-19T16:06:20.951Z,10.69
2019-02-19T16:09:30.128Z,10.57
2019-02-19T16:12:43.409Z,10.47
2019-02-19T16:15:50.697Z,10.42
2019-02-19T16:18:58.843Z,10.34
2019-02-19T16:22:06.206Z,10.31
2019-02-19T16:25:16.567Z,10.25
2019-02-19T16:28:35.150Z,10.23
2019-02-19T16:31:46.427Z,10.23
2019-02-19T16:34:53.802Z,10.17
2019-02-19T16:38:02.371Z,10.13
2019-02-19T16:41:13.719Z,10.07
2019-02-19T16:48:58.595Z,9.80
2019-02-19T16:53:04.763Z,9.70
2019-02-19T16:56:12.122Z,9.73
2019-02-19T16:59:35.525Z,9.59
2019-02-19T17:02:44.724Z,9.51
2019-02-19T17:05:52.124Z,9.43
2019-02-19T17:09:01.366Z,9.36
2019-02-19T17:12:08.674Z,9.33
2019-02-19T17:15:17.211Z,9.26
2019-02-19T17:18:30.574Z,9.15
2019-02-19T17:21:44.920Z,9.12
2019-02-19T17:25:54.189Z,8.97
2019-02-19T17:29:09.473Z,8.86
2019-02-19T17:32:27.783Z,8.83
2019-02-19T17:35:52.547Z,8.77
2019-02-19T17:38:59.769Z,8.65
2019-02-19T17:42:09.033Z,8.54
2019-02-19T17:45:17.493Z,8.46
2019-02-19T17:48:24.883Z,8.42
2019-02-19T17:51:37.276Z,8.40
2019-02-19T17:54:47.667Z,8.36
2019-02-19T17:57:54.957Z,8.28
2019-02-19T18:02:05.455Z,8.13
2019-02-19T18:05:12.819Z,7.94
2019-02-19T18:12:04.751Z,7.64
2019-02-19T18:15:27.179Z,7.63
2019-02-19T18:18:35.380Z,7.51
2019-02-19T18:21:38.463Z,7.43
2019-02-19T18:24:41.750Z,7.37
2019-02-19T18:27:44.948Z,7.36
2019-02-19T18:30:48.167Z,7.31
2019-02-19T18:33:51.349Z,7.23
2019-02-19T18:36:54.667Z,7.17
2019-02-19T18:39:57.945Z,7.09
2019-02-19T18:43:01.040Z,7.05
2019-02-19T18:46:04.222Z,7.09
2019-02-19T18:49:07.468Z,7.10
2019-02-19T18:52:10.713Z,7.06
2019-02-19T18:55:13.911Z,6.94
2019-02-19T18:58:17.219Z,6.81
2019-02-19T19:01:20.403Z,6.78
2019-02-19T19:04:23.607Z,6.77
2019-02-19T19:07:26.875Z,6.77
2019-02-19T19:10:30.015Z,6.75
2019-02-19T19:13:33.188Z,6.68
2019-02-19T19:16:36.400Z,6.59
2019-02-19T19:19:39.553Z,6.54
2019-02-19T19:22:42.684Z,6.51
2019-02-19T19:25:45.844Z,6.51
2019-02-19T19:28:49.066Z,6.71
2019-02-19T19:31:52.359Z,6.77
2019-02-19T19:34:55.630Z,6.59
2019-02-19T19:37:58.895Z,6.57
2019-02-19T19:41:02.144Z,6.43
2019-02-19T19:44:05.329Z,6.22
2019-02-19T19:47:08.516Z,6.14
2019-02-19T19:50:11.667Z,6.06
2019-02-19T19:53:14.808Z,5.95
2019-02-19T19:56:18.297Z,5.87
2019-02-19T19:59:21.438Z,5.71
2019-02-19T20:02:24.639Z,5.69
2019-02-19T20:05:27.786Z,5.63
2019-02-19T20:08:31.051Z,5.52
2019-02-19T20:11:34.185Z,5.47
2019-02-19T20:14:37.289Z,5.43
2019-02-19T20:17:40.512Z,5.37
2019-02-19T20:20:43.623Z,5.35
2019-02-19T20:23:46.752Z,5.27
2019-02-19T20:26:49.956Z,5.15
2019-02-19T20:29:53.173Z,5.10
2019-02-19T20:32:56.335Z,5.10
2019-02-19T20:35:59.531Z,5.16
2019-02-19T20:39:02.736Z,5.11
2019-02-19T20:42:05.924Z,5.00
2019-02-19T20:45:09.419Z,4.90
2019-02-19T20:48:12.521Z,4.87
2019-02-19T20:51:15.721Z,4.84
2019-02-19T20:54:18.808Z,4.77
2019-02-19T20:57:21.928Z,4.60
2019-02-19T21:00:25.225Z,4.52
2019-02-19T21:03:28.392Z,4.57
2019-02-19T21:06:31.589Z,4.48
2019-02-19T21:09:43.380Z,4.35
2019-02-19T21:12:37.969Z,4.27
2019-02-19T21:15:41.159Z,4.22
2019-02-19T21:18:44.347Z,4.20
2019-02-19T21:21:47.562Z,4.19
2019-02-19T21:24:50.739Z,4.23
2019-02-19T21:27:54.046Z,4.21
2019-02-19T21:30:57.135Z,4.27
2019-02-19T21:34:00.226Z,4.20
2019-02-19T21:37:03.419Z,4.17
2019-02-19T21:40:07.090Z,4.20
2019-02-19T21:43:10.231Z,4.13
2019-02-19T21:46:13.419Z,4.05
2019-02-19T21:49:16.611Z,3.98
2019-02-19T21:52:20.745Z,3.92
2019-02-19T21:55:24.011Z,3.91
2019-02-19T21:58:27.128Z,3.82
2019-02-19T22:01:30.441Z,3.76
2019-02-19T22:04:33.626Z,3.76
2019-02-19T22:07:36.811Z,3.80
2019-02-19T22:10:39.986Z,3.73
2019-02-19T22:13:43.359Z,3.68
2019-02-19T22:16:46.591Z,3.65
2019-02-19T22:19:49.775Z,3.63
2019-02-19T22:22:52.994Z,3.58
2019-02-19T22:25:56.191Z,3.55
2019-02-19T22:28:59.368Z,3.56
2019-02-19T22:32:02.659Z,3.65
2019-02-19T22:35:06.171Z,3.60
2019-02-19T22:38:09.292Z,3.52
2019-02-19T22:41:12.434Z,3.44
2019-02-19T22:44:15.560Z,3.43
2019-02-19T22:47:18.831Z,3.41
2019-02-19T22:50:21.973Z,3.34
2019-02-19T22:53:30.467Z,3.23
2019-02-19T22:56:36.472Z,3.11
2019-02-19T22:59:39.622Z,3.00
2019-02-19T23:02:42.766Z,3.02
2019-02-19T23:05:45.925Z,3.17
2019-02-19T23:08:50.120Z,3.22
2019-02-19T23:11:53.223Z,3.09
2019-02-19T23:14:56.320Z,3.00
2019-02-19T23:17:59.418Z,2.95
2019-02-19T23:21:03.426Z,3.02
2019-02-19T23:24:06.579Z,3.01
2019-02-19T23:27:09.791Z,2.99
2019-02-19T23:30:12.990Z,2.96
2019-02-19T23:33:16.247Z,2.94
2019-02-19T23:36:23.624Z,2.96
2019-02-19T23:39:26.876Z,2.98
2019-02-19T23:42:30.074Z,2.92
2019-02-19T23:45:33.275Z,2.90
2019-02-19T23:48:36.459Z,2.80
2019-02-19T23:51:39.639Z,2.84
2019-02-19T23:54:42.845Z,2.78
2019-02-19T23:57:46.045Z,2.80
